createdAt,value
2022-11-01T00:01:44.503Z,100
2022-11-01T00:11:46.664Z,100
2022-11-01T00:21:48.614Z,100
2022-11-01T00:31:50.787Z,100
2022-11-01T00:41:53.328Z,100
2022-11-01T00:51:55.527Z,100
2022-11-01T01:01:58.301Z,100
2022-11-01T01:12:00.437Z,100
2022-11-01T01:22:02.866Z,100
2022-11-01T01:32:05.242Z,100
2022-11-01T01:42:06.946Z,100
2022-11-01T01:52:09.387Z,100
2022-11-01T02:02:11.604Z,100
2022-11-01T02:12:14.057Z,100
2022-11-01T02:22:16.500Z,100
2022-11-01T02:32:18.522Z,100
2022-11-01T02:42:20.540Z,100
2022-11-01T02:52:22.606Z,100
2022-11-01T03:02:24.989Z,100
2022-11-01T03:22:29.779Z,100
2022-11-01T03:32:31.890Z,100
2022-11-01T03:42:34.200Z,100
2022-11-01T03:52:36.664Z,100
2022-11-01T04:02:39.166Z,100
2022-11-01T04:03:01.376Z,100
2022-11-01T04:12:48.006Z,100
2022-11-01T04:22:50.054Z,100
2022-11-01T04:32:52.118Z,100
2022-11-01T04:42:54.672Z,100
2022-11-01T04:52:56.751Z,100
2022-11-01T05:02:59.114Z,100
2022-11-01T05:13:01.651Z,100
2022-11-01T05:23:04.283Z,100
2022-11-01T05:33:06.027Z,100
2022-11-01T05:43:07.878Z,100
2022-11-01T05:53:10.043Z,100
2022-11-01T06:03:12.262Z,100
2022-11-01T06:23:16.638Z,100
2022-11-01T06:33:18.492Z,100
2022-11-01T06:43:20.380Z,100
2022-11-01T06:53:22.464Z,100
2022-11-01T07:03:24.321Z,100
2022-11-01T07:13:26.965Z,100
2022-11-01T07:23:29.173Z,100
2022-11-01T07:33:31.208Z,100
2022-11-01T07:43:33.157Z,100
2022-11-01T07:53:35.337Z,100
2022-11-01T08:03:37.110Z,100
2022-11-01T08:13:39.131Z,100
2022-11-01T08:23:40.944Z,100
2022-11-01T08:33:42.769Z,100
2022-11-01T08:43:45.008Z,100
2022-11-01T08:53:47.609Z,100
2022-11-01T09:03:50.047Z,100
2022-11-01T09:13:52.427Z,100
2022-11-01T09:23:54.406Z,100
2022-11-01T09:33:56.342Z,100
2022-11-01T09:43:58.807Z,100
2022-11-01T09:54:01.228Z,100
2022-11-01T10:04:03.724Z,100
2022-11-01T10:14:05.798Z,100
2022-11-01T10:24:07.486Z,100
2022-11-01T10:34:09.985Z,100
2022-11-01T10:44:12.122Z,100
2022-11-01T10:54:13.773Z,100
2022-11-01T11:04:15.454Z,100
2022-11-01T11:14:17.288Z,100
2022-11-01T11:24:18.979Z,100
2022-11-01T11:34:21.275Z,100
2022-11-01T11:54:25.347Z,100
2022-11-01T12:04:27.607Z,100
2022-11-01T12:14:29.976Z,100
2022-11-01T12:24:31.989Z,99
2022-11-01T12:34:35.046Z,97
2022-11-01T12:44:36.177Z,95
2022-11-01T12:54:37.968Z,94
2022-11-01T13:04:40.000Z,93
2022-11-01T13:24:44.006Z,91
2022-11-01T13:34:46.060Z,91
2022-11-01T13:44:48.407Z,91
2022-11-01T13:54:50.432Z,90
2022-11-01T14:04:52.915Z,90
2022-11-01T14:14:54.612Z,90
2022-11-01T14:24:56.691Z,90
2022-11-01T14:45:00.405Z,90
2022-11-01T14:55:02.875Z,90
2022-11-01T15:05:05.206Z,90
2022-11-01T15:15:07.200Z,90
2022-11-01T15:25:09.704Z,90
2022-11-01T15:35:11.982Z,90
2022-11-01T15:45:14.052Z,90
2022-11-01T15:55:15.768Z,91
2022-11-01T16:05:17.757Z,91
2022-11-01T16:15:19.560Z,91
2022-11-01T16:25:21.346Z,91
2022-11-01T16:35:23.431Z,92
2022-11-01T16:45:25.895Z,93
2022-11-01T16:55:29.001Z,93
2022-11-01T17:05:30.113Z,94
2022-11-01T17:25:34.463Z,94
2022-11-01T17:35:36.375Z,94
2022-11-01T17:45:38.951Z,94
2022-11-01T17:55:40.792Z,94
2022-11-01T18:05:43.364Z,94
2022-11-01T18:15:45.234Z,95
2022-11-01T18:25:47.594Z,95
2022-11-01T18:35:50.094Z,95
2022-11-01T18:46:19.046Z,96
2022-11-01T18:55:54.387Z,96
2022-11-01T19:05:56.195Z,97
2022-11-01T19:15:58.790Z,97
2022-11-01T19:26:01.085Z,98
2022-11-01T19:36:02.756Z,99
2022-11-01T19:56:07.183Z,100
2022-11-01T20:06:08.946Z,100
2022-11-01T20:16:11.264Z,100
2022-11-01T20:26:13.601Z,100
2022-11-01T20:36:16.227Z,100
2022-11-01T20:46:18.613Z,100
2022-11-01T20:56:20.721Z,100
2022-11-01T21:06:22.735Z,100
2022-11-01T21:16:25.025Z,100
2022-11-01T21:36:28.482Z,100
2022-11-01T21:46:30.765Z,100
2022-11-01T21:56:33.110Z,100
2022-11-01T22:06:35.663Z,100
2022-11-01T22:16:37.701Z,100
2022-11-01T22:36:41.801Z,100
2022-11-01T22:46:43.734Z,100
2022-11-01T22:56:45.633Z,100
2022-11-01T23:16:49.942Z,100
2022-11-01T23:26:51.684Z,100
2022-11-01T23:36:53.799Z,100
2022-11-01T23:46:55.436Z,100
2022-11-01T23:56:57.130Z,100
